sensor_id;sensor_type;location;lat;lon;timestamp;P1;durP1;ratioP1;P2;durP2;ratioP2
57605;SDS011;43430;48.204;11.556;2023-02-21T00:02:09;2.63;;;0.43;;
57605;SDS011;43430;48.204;11.556;2023-02-21T00:04:54;3.83;;;0.70;;
57605;SDS011;43430;48.204;11.556;2023-02-21T00:07:38;2.00;;;0.50;;
57605;SDS011;43430;48.204;11.556;2023-02-21T00:10:22;3.80;;;0.55;;
57605;SDS011;43430;48.204;11.556;2023-02-21T00:13:06;2.85;;;0.55;;
57605;SDS011;43430;48.204;11.556;2023-02-21T00:15:50;5.20;;;1.10;;
57605;SDS011;43430;48.204;11.556;2023-02-21T00:18:35;5.03;;;0.80;;
57605;SDS011;43430;48.204;11.556;2023-02-21T00:21:19;2.75;;;0.73;;
57605;SDS011;43430;48.204;11.556;2023-02-21T00:24:03;1.90;;;0.43;;
57605;SDS011;43430;48.204;11.556;2023-02-21T00:26:47;6.55;;;0.65;;
57605;SDS011;43430;48.204;11.556;2023-02-21T00:29:31;2.63;;;0.73;;
57605;SDS011;43430;48.204;11.556;2023-02-21T00:32:15;2.92;;;0.70;;
57605;SDS011;43430;48.204;11.556;2023-02-21T00:34:59;2.30;;;0.40;;
57605;SDS011;43430;48.204;11.556;2023-02-21T00:37:44;5.10;;;0.75;;
57605;SDS011;43430;48.204;11.556;2023-02-21T00:40:27;3.30;;;0.93;;
57605;SDS011;43430;48.204;11.556;2023-02-21T00:43:11;6.43;;;1.00;;
57605;SDS011;43430;48.204;11.556;2023-02-21T00:45:56;2.83;;;0.80;;
57605;SDS011;43430;48.204;11.556;2023-02-21T00:48:40;2.05;;;0.52;;
57605;SDS011;43430;48.204;11.556;2023-02-21T00:51:24;3.03;;;0.55;;
57605;SDS011;43430;48.204;11.556;2023-02-21T00:54:08;2.10;;;0.55;;
57605;SDS011;43430;48.204;11.556;2023-02-21T00:56:52;3.63;;;0.95;;
57605;SDS011;43430;48.204;11.556;2023-02-21T00:59:36;3.03;;;0.80;;
57605;SDS011;43430;48.204;11.556;2023-02-21T01:02:20;2.40;;;0.75;;
57605;SDS011;43430;48.204;11.556;2023-02-21T01:05:04;2.88;;;0.90;;
57605;SDS011;43430;48.204;11.556;2023-02-21T01:07:48;3.30;;;0.93;;
57605;SDS011;43430;48.204;11.556;2023-02-21T01:10:32;2.97;;;0.45;;
57605;SDS011;43430;48.204;11.556;2023-02-21T01:13:16;2.53;;;0.63;;
57605;SDS011;43430;48.204;11.556;2023-02-21T01:16:00;4.85;;;0.88;;
57605;SDS011;43430;48.204;11.556;2023-02-21T01:18:44;5.20;;;0.70;;
57605;SDS011;43430;48.204;11.556;2023-02-21T01:21:28;4.43;;;1.02;;
57605;SDS011;43430;48.204;11.556;2023-02-21T01:24:13;3.72;;;0.80;;
57605;SDS011;43430;48.204;11.556;2023-02-21T01:26:58;3.08;;;0.70;;
57605;SDS011;43430;48.204;11.556;2023-02-21T01:29:42;2.38;;;0.40;;
57605;SDS011;43430;48.204;11.556;2023-02-21T01:32:26;4.38;;;0.73;;
57605;SDS011;43430;48.204;11.556;2023-02-21T01:35:10;3.83;;;0.82;;
57605;SDS011;43430;48.204;11.556;2023-02-21T01:37:55;2.70;;;0.50;;
57605;SDS011;43430;48.204;11.556;2023-02-21T01:40:39;3.55;;;0.63;;
57605;SDS011;43430;48.204;11.556;2023-02-21T01:43:23;3.38;;;1.08;;
57605;SDS011;43430;48.204;11.556;2023-02-21T01:46:09;5.20;;;0.63;;
57605;SDS011;43430;48.204;11.556;2023-02-21T01:48:55;4.45;;;1.10;;
57605;SDS011;43430;48.204;11.556;2023-02-21T01:51:42;4.72;;;0.85;;
57605;SDS011;43430;48.204;11.556;2023-02-21T01:54:28;3.60;;;1.00;;
57605;SDS011;43430;48.204;11.556;2023-02-21T01:57:15;4.80;;;0.70;;
57605;SDS011;43430;48.204;11.556;2023-02-21T02:00:02;4.65;;;0.75;;
57605;SDS011;43430;48.204;11.556;2023-02-21T02:02:55;3.95;;;0.52;;
57605;SDS011;43430;48.204;11.556;2023-02-21T02:05:48;3.58;;;1.08;;
57605;SDS011;43430;48.204;11.556;2023-02-21T02:08:36;4.55;;;0.95;;
57605;SDS011;43430;48.204;11.556;2023-02-21T02:16:56;4.32;;;1.10;;
57605;SDS011;43430;48.204;11.556;2023-02-21T02:22:28;4.88;;;0.55;;
57605;SDS011;43430;48.204;11.556;2023-02-21T02:28:07;3.33;;;0.52;;
57605;SDS011;43430;48.204;11.556;2023-02-21T02:35:59;2.97;;;0.75;;
57605;SDS011;43430;48.204;11.556;2023-02-21T02:38:37;3.00;;;0.70;;
57605;SDS011;43430;48.204;11.556;2023-02-21T02:43:53;3.47;;;1.02;;
57605;SDS011;43430;48.204;11.556;2023-02-21T02:46:26;4.22;;;0.95;;
57605;SDS011;43430;48.204;11.556;2023-02-21T02:49:00;2.97;;;0.88;;
57605;SDS011;43430;48.204;11.556;2023-02-21T02:51:29;3.85;;;1.10;;
57605;SDS011;43430;48.204;11.556;2023-02-21T02:53:57;3.38;;;0.88;;
57605;SDS011;43430;48.204;11.556;2023-02-21T02:56:23;3.55;;;0.95;;
57605;SDS011;43430;48.204;11.556;2023-02-21T02:59:01;3.25;;;1.00;;
57605;SDS011;43430;48.204;11.556;2023-02-21T03:01:49;4.88;;;1.20;;
57605;SDS011;43430;48.204;11.556;2023-02-21T03:15:37;5.25;;;1.45;;
57605;SDS011;43430;48.204;11.556;2023-02-21T03:18:19;5.22;;;1.20;;
57605;SDS011;43430;48.204;11.556;2023-02-21T03:20:51;3.83;;;1.20;;
57605;SDS011;43430;48.204;11.556;2023-02-21T03:23:20;3.85;;;1.08;;
57605;SDS011;43430;48.204;11.556;2023-02-21T03:25:49;3.70;;;0.77;;
57605;SDS011;43430;48.204;11.556;2023-02-21T03:28:16;2.65;;;0.63;;
57605;SDS011;43430;48.204;11.556;2023-02-21T03:30:43;3.17;;;0.85;;
57605;SDS011;43430;48.204;11.556;2023-02-21T03:33:10;3.08;;;1.05;;
57605;SDS011;43430;48.204;11.556;2023-02-21T03:35:35;3.67;;;1.00;;
57605;SDS011;43430;48.204;11.556;2023-02-21T03:38:01;5.32;;;0.90;;
57605;SDS011;43430;48.204;11.556;2023-02-21T03:40:28;4.93;;;1.00;;
57605;SDS011;43430;48.204;11.556;2023-02-21T03:42:56;4.38;;;1.10;;
57605;SDS011;43430;48.204;11.556;2023-02-21T03:45:22;3.30;;;1.23;;
57605;SDS011;43430;48.204;11.556;2023-02-21T03:47:48;3.88;;;0.95;;
57605;SDS011;43430;48.204;11.556;2023-02-21T03:50:13;3.95;;;0.80;;
57605;SDS011;43430;48.204;11.556;2023-02-21T03:52:39;4.75;;;1.35;;
57605;SDS011;43430;48.204;11.556;2023-02-21T03:55:05;3.80;;;0.85;;
57605;SDS011;43430;48.204;11.556;2023-02-21T03:57:31;2.30;;;0.70;;
57605;SDS011;43430;48.204;11.556;2023-02-21T03:59:57;3.60;;;0.93;;
57605;SDS011;43430;48.204;11.556;2023-02-21T04:02:22;3.67;;;1.08;;
57605;SDS011;43430;48.204;11.556;2023-02-21T04:04:48;4.75;;;0.90;;
57605;SDS011;43430;48.204;11.556;2023-02-21T04:07:14;2.60;;;0.60;;
57605;SDS011;43430;48.204;11.556;2023-02-21T04:09:40;3.55;;;1.00;;
57605;SDS011;43430;48.204;11.556;2023-02-21T04:12:06;3.22;;;0.80;;
57605;SDS011;43430;48.204;11.556;2023-02-21T04:14:32;3.38;;;0.65;;
57605;SDS011;43430;48.204;11.556;2023-02-21T04:16:57;3.35;;;0.77;;
57605;SDS011;43430;48.204;11.556;2023-02-21T04:19:23;2.35;;;0.57;;
57605;SDS011;43430;48.204;11.556;2023-02-21T04:21:48;4.38;;;0.80;;
57605;SDS011;43430;48.204;11.556;2023-02-21T04:24:14;4.07;;;0.90;;
57605;SDS011;43430;48.204;11.556;2023-02-21T04:26:39;3.72;;;0.85;;
57605;SDS011;43430;48.204;11.556;2023-02-21T04:29:05;4.75;;;1.00;;
57605;SDS011;43430;48.204;11.556;2023-02-21T04:31:31;5.15;;;0.95;;
57605;SDS011;43430;48.204;11.556;2023-02-21T04:33:57;5.85;;;1.00;;
57605;SDS011;43430;48.204;11.556;2023-02-21T04:36:23;3.00;;;0.85;;
57605;SDS011;43430;48.204;11.556;2023-02-21T04:38:48;3.17;;;0.88;;
57605;SDS011;43430;48.204;11.556;2023-02-21T04:41:14;5.53;;;0.77;;
57605;SDS011;43430;48.204;11.556;2023-02-21T04:43:41;3.75;;;0.73;;
57605;SDS011;43430;48.204;11.556;2023-02-21T04:46:07;5.25;;;1.45;;
57605;SDS011;43430;48.204;11.556;2023-02-21T04:48:32;4.20;;;0.95;;
57605;SDS011;43430;48.204;11.556;2023-02-21T04:50:58;4.55;;;1.13;;
57605;SDS011;43430;48.204;11.556;2023-02-21T04:53:23;3.78;;;1.13;;
57605;SDS011;43430;48.204;11.556;2023-02-21T04:55:48;4.57;;;0.80;;
57605;SDS011;43430;48.204;11.556;2023-02-21T04:58:14;6.57;;;1.08;;
57605;SDS011;43430;48.204;11.556;2023-02-21T05:00:39;4.70;;;1.10;;
57605;SDS011;43430;48.204;11.556;2023-02-21T05:03:04;5.25;;;1.00;;
57605;SDS011;43430;48.204;11.556;2023-02-21T05:05:30;3.63;;;1.00;;
57605;SDS011;43430;48.204;11.556;2023-02-21T05:07:55;3.40;;;0.95;;
57605;SDS011;43430;48.204;11.556;2023-02-21T05:10:21;3.88;;;1.08;;
57605;SDS011;43430;48.204;11.556;2023-02-21T05:12:46;3.33;;;1.00;;
57605;SDS011;43430;48.204;11.556;2023-02-21T05:15:11;5.22;;;1.10;;
57605;SDS011;43430;48.204;11.556;2023-02-21T05:17:37;5.38;;;1.00;;
57605;SDS011;43430;48.204;11.556;2023-02-21T05:20:03;4.20;;;0.98;;
57605;SDS011;43430;48.204;11.556;2023-02-21T05:22:31;3.17;;;0.88;;
57605;SDS011;43430;48.204;11.556;2023-02-21T05:24:57;2.88;;;0.98;;
57605;SDS011;43430;48.204;11.556;2023-02-21T05:27:22;2.85;;;0.98;;
57605;SDS011;43430;48.204;11.556;2023-02-21T05:29:48;3.00;;;0.90;;
57605;SDS011;43430;48.204;11.556;2023-02-21T05:32:15;3.40;;;1.30;;
57605;SDS011;43430;48.204;11.556;2023-02-21T05:34:41;3.83;;;0.88;;
57605;SDS011;43430;48.204;11.556;2023-02-21T05:37:12;4.93;;;1.10;;
57605;SDS011;43430;48.204;11.556;2023-02-21T05:39:38;3.70;;;0.90;;
57605;SDS011;43430;48.204;11.556;2023-02-21T05:42:04;2.47;;;0.90;;
57605;SDS011;43430;48.204;11.556;2023-02-21T05:44:29;7.72;;;1.48;;
57605;SDS011;43430;48.204;11.556;2023-02-21T05:46:54;3.30;;;1.05;;
57605;SDS011;43430;48.204;11.556;2023-02-21T05:49:20;5.35;;;1.00;;
57605;SDS011;43430;48.204;11.556;2023-02-21T05:51:45;2.97;;;1.00;;
57605;SDS011;43430;48.204;11.556;2023-02-21T05:54:13;4.20;;;1.00;;
57605;SDS011;43430;48.204;11.556;2023-02-21T05:56:41;3.50;;;0.82;;
57605;SDS011;43430;48.204;11.556;2023-02-21T05:59:08;5.93;;;0.90;;
57605;SDS011;43430;48.204;11.556;2023-02-21T06:01:34;3.78;;;0.90;;
57605;SDS011;43430;48.204;11.556;2023-02-21T06:03:59;5.30;;;1.15;;
57605;SDS011;43430;48.204;11.556;2023-02-21T06:06:25;5.97;;;1.10;;
57605;SDS011;43430;48.204;11.556;2023-02-21T06:08:51;5.20;;;1.25;;
57605;SDS011;43430;48.204;11.556;2023-02-21T06:11:24;7.32;;;1.25;;
57605;SDS011;43430;48.204;11.556;2023-02-21T06:13:55;5.18;;;0.90;;
57605;SDS011;43430;48.204;11.556;2023-02-21T06:16:22;3.25;;;1.20;;
57605;SDS011;43430;48.204;11.556;2023-02-21T06:18:49;4.65;;;1.10;;
57605;SDS011;43430;48.204;11.556;2023-02-21T06:21:16;4.10;;;1.17;;
57605;SDS011;43430;48.204;11.556;2023-02-21T06:23:41;4.32;;;1.02;;
57605;SDS011;43430;48.204;11.556;2023-02-21T06:26:07;4.60;;;0.98;;
57605;SDS011;43430;48.204;11.556;2023-02-21T06:28:32;4.97;;;1.10;;
57605;SDS011;43430;48.204;11.556;2023-02-21T06:30:57;4.47;;;0.90;;
57605;SDS011;43430;48.204;11.556;2023-02-21T06:33:23;4.47;;;1.27;;
57605;SDS011;43430;48.204;11.556;2023-02-21T06:35:49;4.82;;;0.88;;
57605;SDS011;43430;48.204;11.556;2023-02-21T06:38:14;4.82;;;1.45;;
57605;SDS011;43430;48.204;11.556;2023-02-21T06:40:40;4.82;;;1.35;;
57605;SDS011;43430;48.204;11.556;2023-02-21T06:43:05;4.90;;;1.15;;
57605;SDS011;43430;48.204;11.556;2023-02-21T06:45:31;4.10;;;0.85;;
57605;SDS011;43430;48.204;11.556;2023-02-21T06:47:56;4.18;;;1.10;;
57605;SDS011;43430;48.204;11.556;2023-02-21T06:50:22;6.70;;;1.33;;
57605;SDS011;43430;48.204;11.556;2023-02-21T06:52:47;5.20;;;1.27;;
57605;SDS011;43430;48.204;11.556;2023-02-21T06:55:12;6.60;;;1.30;;
57605;SDS011;43430;48.204;11.556;2023-02-21T06:57:43;5.97;;;1.60;;
57605;SDS011;43430;48.204;11.556;2023-02-21T07:00:08;4.43;;;1.50;;
57605;SDS011;43430;48.204;11.556;2023-02-21T07:02:34;6.70;;;1.52;;
57605;SDS011;43430;48.204;11.556;2023-02-21T07:04:59;3.90;;;1.15;;
57605;SDS011;43430;48.204;11.556;2023-02-21T07:07:25;5.05;;;1.40;;
57605;SDS011;43430;48.204;11.556;2023-02-21T07:09:50;5.45;;;1.13;;
57605;SDS011;43430;48.204;11.556;2023-02-21T07:12:16;7.45;;;1.35;;
57605;SDS011;43430;48.204;11.556;2023-02-21T07:14:41;4.25;;;1.30;;
57605;SDS011;43430;48.204;11.556;2023-02-21T07:17:06;4.88;;;0.93;;
57605;SDS011;43430;48.204;11.556;2023-02-21T07:19:32;4.68;;;1.40;;
57605;SDS011;43430;48.204;11.556;2023-02-21T07:21:57;5.07;;;1.85;;
57605;SDS011;43430;48.204;11.556;2023-02-21T07:24:23;9.02;;;1.65;;
57605;SDS011;43430;48.204;11.556;2023-02-21T07:26:48;5.93;;;1.75;;
57605;SDS011;43430;48.204;11.556;2023-02-21T07:29:14;6.32;;;1.50;;
57605;SDS011;43430;48.204;11.556;2023-02-21T07:31:41;6.53;;;1.40;;
57605;SDS011;43430;48.204;11.556;2023-02-21T07:34:06;3.85;;;1.30;;
57605;SDS011;43430;48.204;11.556;2023-02-21T07:36:32;3.72;;;1.15;;
57605;SDS011;43430;48.204;11.556;2023-02-21T07:38:58;8.23;;;1.63;;
57605;SDS011;43430;48.204;11.556;2023-02-21T07:41:23;9.63;;;1.73;;
57605;SDS011;43430;48.204;11.556;2023-02-21T07:43:48;4.32;;;1.27;;
57605;SDS011;43430;48.204;11.556;2023-02-21T07:46:15;2.97;;;1.10;;
57605;SDS011;43430;48.204;11.556;2023-02-21T07:48:42;7.53;;;1.73;;
57605;SDS011;43430;48.204;11.556;2023-02-21T07:51:08;4.63;;;1.20;;
57605;SDS011;43430;48.204;11.556;2023-02-21T07:53:34;4.18;;;1.10;;
57605;SDS011;43430;48.204;11.556;2023-02-21T07:55:59;4.55;;;0.95;;
57605;SDS011;43430;48.204;11.556;2023-02-21T07:58:25;3.58;;;0.95;;
57605;SDS011;43430;48.204;11.556;2023-02-21T08:00:50;7.90;;;1.58;;
57605;SDS011;43430;48.204;11.556;2023-02-21T08:03:16;5.18;;;1.25;;
57605;SDS011;43430;48.204;11.556;2023-02-21T08:05:42;3.15;;;1.23;;
57605;SDS011;43430;48.204;11.556;2023-02-21T08:08:08;3.95;;;1.30;;
57605;SDS011;43430;48.204;11.556;2023-02-21T08:10:33;4.32;;;1.17;;
57605;SDS011;43430;48.204;11.556;2023-02-21T08:12:59;6.20;;;1.30;;
57605;SDS011;43430;48.204;11.556;2023-02-21T08:15:25;4.13;;;1.02;;
57605;SDS011;43430;48.204;11.556;2023-02-21T08:17:50;5.28;;;1.42;;
57605;SDS011;43430;48.204;11.556;2023-02-21T08:20:16;4.50;;;1.15;;
57605;SDS011;43430;48.204;11.556;2023-02-21T08:22:42;3.38;;;1.05;;
57605;SDS011;43430;48.204;11.556;2023-02-21T08:25:08;5.63;;;1.35;;
57605;SDS011;43430;48.204;11.556;2023-02-21T08:27:37;2.35;;;0.75;;
57605;SDS011;43430;48.204;11.556;2023-02-21T08:30:04;5.57;;;0.88;;
57605;SDS011;43430;48.204;11.556;2023-02-21T08:32:29;3.67;;;1.08;;
57605;SDS011;43430;48.204;11.556;2023-02-21T08:34:55;6.07;;;1.20;;
57605;SDS011;43430;48.204;11.556;2023-02-21T08:37:20;5.80;;;1.25;;
57605;SDS011;43430;48.204;11.556;2023-02-21T08:39:46;4.03;;;0.85;;
57605;SDS011;43430;48.204;11.556;2023-02-21T08:42:12;5.30;;;1.00;;
57605;SDS011;43430;48.204;11.556;2023-02-21T08:44:38;5.10;;;1.27;;
57605;SDS011;43430;48.204;11.556;2023-02-21T08:47:06;5.50;;;1.10;;
57605;SDS011;43430;48.204;11.556;2023-02-21T08:49:32;5.63;;;1.02;;
57605;SDS011;43430;48.204;11.556;2023-02-21T08:51:57;4.72;;;1.13;;
57605;SDS011;43430;48.204;11.556;2023-02-21T08:54:22;5.97;;;1.15;;
57605;SDS011;43430;48.204;11.556;2023-02-21T08:56:48;3.42;;;0.80;;
57605;SDS011;43430;48.204;11.556;2023-02-21T08:59:14;4.15;;;1.13;;
57605;SDS011;43430;48.204;11.556;2023-02-21T09:01:39;6.47;;;1.20;;
57605;SDS011;43430;48.204;11.556;2023-02-21T09:04:05;4.95;;;1.25;;
57605;SDS011;43430;48.204;11.556;2023-02-21T09:06:30;5.88;;;1.27;;
57605;SDS011;43430;48.204;11.556;2023-02-21T09:08:56;2.97;;;0.73;;
57605;SDS011;43430;48.204;11.556;2023-02-21T09:11:21;3.30;;;1.33;;
57605;SDS011;43430;48.204;11.556;2023-02-21T09:13:47;4.25;;;0.70;;
57605;SDS011;43430;48.204;11.556;2023-02-21T09:16:12;6.22;;;0.98;;
57605;SDS011;43430;48.204;11.556;2023-02-21T09:18:38;4.97;;;1.00;;
57605;SDS011;43430;48.204;11.556;2023-02-21T09:21:04;7.05;;;0.85;;
57605;SDS011;43430;48.204;11.556;2023-02-21T09:23:30;3.45;;;0.70;;
57605;SDS011;43430;48.204;11.556;2023-02-21T09:25:56;4.60;;;1.00;;
57605;SDS011;43430;48.204;11.556;2023-02-21T09:28:21;2.33;;;0.80;;
57605;SDS011;43430;48.204;11.556;2023-02-21T09:30:47;4.15;;;1.02;;
57605;SDS011;43430;48.204;11.556;2023-02-21T09:33:13;2.45;;;0.55;;
57605;SDS011;43430;48.204;11.556;2023-02-21T09:35:39;3.60;;;0.85;;
57605;SDS011;43430;48.204;11.556;2023-02-21T09:38:05;3.03;;;0.50;;
57605;SDS011;43430;48.204;11.556;2023-02-21T09:43:30;7.90;;;0.93;;
57605;SDS011;43430;48.204;11.556;2023-02-21T09:45:59;3.13;;;0.55;;
57605;SDS011;43430;48.204;11.556;2023-02-21T09:48:29;2.67;;;0.65;;
57605;SDS011;43430;48.204;11.556;2023-02-21T09:50:57;3.25;;;1.00;;
57605;SDS011;43430;48.204;11.556;2023-02-21T09:53:26;2.03;;;0.63;;
57605;SDS011;43430;48.204;11.556;2023-02-21T09:56:07;3.33;;;0.63;;
57605;SDS011;43430;48.204;11.556;2023-02-21T09:58:38;2.17;;;0.40;;
57605;SDS011;43430;48.204;11.556;2023-02-21T10:01:12;1.98;;;0.60;;
57605;SDS011;43430;48.204;11.556;2023-02-21T10:04:15;4.30;;;0.57;;
57605;SDS011;43430;48.204;11.556;2023-02-21T10:06:59;6.15;;;0.70;;
57605;SDS011;43430;48.204;11.556;2023-02-21T10:17:55;3.53;;;0.40;;
57605;SDS011;43430;48.204;11.556;2023-02-21T10:20:34;4.78;;;0.93;;
57605;SDS011;43430;48.204;11.556;2023-02-21T10:23:26;3.85;;;0.70;;
57605;SDS011;43430;48.204;11.556;2023-02-21T10:26:00;2.45;;;0.88;;
57605;SDS011;43430;48.204;11.556;2023-02-21T10:28:31;4.38;;;0.70;;
57605;SDS011;43430;48.204;11.556;2023-02-21T10:30:58;3.65;;;0.35;;
57605;SDS011;43430;48.204;11.556;2023-02-21T10:33:27;1.60;;;0.40;;
57605;SDS011;43430;48.204;11.556;2023-02-21T10:35:52;4.72;;;0.90;;
57605;SDS011;43430;48.204;11.556;2023-02-21T10:38:19;3.70;;;0.70;;
57605;SDS011;43430;48.204;11.556;2023-02-21T10:40:57;1.95;;;0.40;;
57605;SDS011;43430;48.204;11.556;2023-02-21T10:46:03;4.35;;;0.50;;
57605;SDS011;43430;48.204;11.556;2023-02-21T10:48:36;4.47;;;0.85;;
57605;SDS011;43430;48.204;11.556;2023-02-21T10:53:42;3.35;;;0.70;;
57605;SDS011;43430;48.204;11.556;2023-02-21T10:58:47;2.53;;;0.85;;
57605;SDS011;43430;48.204;11.556;2023-02-21T11:01:36;2.55;;;0.38;;
57605;SDS011;43430;48.204;11.556;2023-02-21T11:06:43;3.58;;;0.82;;
57605;SDS011;43430;48.204;11.556;2023-02-21T11:12:26;1.90;;;0.38;;
57605;SDS011;43430;48.204;11.556;2023-02-21T11:19:52;2.60;;;0.77;;
57605;SDS011;43430;48.204;11.556;2023-02-21T11:27:30;1.77;;;0.40;;
57605;SDS011;43430;48.204;11.556;2023-02-21T11:29:59;2.88;;;0.45;;
57605;SDS011;43430;48.204;11.556;2023-02-21T11:32:29;2.85;;;0.45;;
57605;SDS011;43430;48.204;11.556;2023-02-21T11:35:42;2.67;;;0.40;;
57605;SDS011;43430;48.204;11.556;2023-02-21T11:40:26;1.65;;;0.43;;
57605;SDS011;43430;48.204;11.556;2023-02-21T11:43:09;5.30;;;0.47;;
57605;SDS011;43430;48.204;11.556;2023-02-21T11:45:58;2.65;;;0.65;;
57605;SDS011;43430;48.204;11.556;2023-02-21T11:48:30;3.35;;;0.40;;
57605;SDS011;43430;48.204;11.556;2023-02-21T11:51:03;2.65;;;0.73;;
57605;SDS011;43430;48.204;11.556;2023-02-21T11:53:34;2.63;;;0.40;;
57605;SDS011;43430;48.204;11.556;2023-02-21T12:01:52;2.03;;;0.47;;
57605;SDS011;43430;48.204;11.556;2023-02-21T12:04:41;2.28;;;0.38;;
57605;SDS011;43430;48.204;11.556;2023-02-21T12:10:30;1.42;;;0.30;;
57605;SDS011;43430;48.204;11.556;2023-02-21T12:16:25;2.55;;;0.57;;
57605;SDS011;43430;48.204;11.556;2023-02-21T12:24:14;2.10;;;0.50;;
57605;SDS011;43430;48.204;11.556;2023-02-21T12:26:45;1.65;;;0.40;;
57605;SDS011;43430;48.204;11.556;2023-02-21T12:50:59;1.83;;;0.70;;
57605;SDS011;43430;48.204;11.556;2023-02-21T12:56:10;1.33;;;0.40;;
57605;SDS011;43430;48.204;11.556;2023-02-21T12:58:51;1.87;;;0.40;;
57605;SDS011;43430;48.204;11.556;2023-02-21T13:01:39;2.17;;;0.45;;
57605;SDS011;43430;48.204;11.556;2023-02-21T13:04:31;2.85;;;0.70;;
57605;SDS011;43430;48.204;11.556;2023-02-21T13:07:08;1.27;;;0.40;;
57605;SDS011;43430;48.204;11.556;2023-02-21T13:09:48;1.85;;;0.47;;
57605;SDS011;43430;48.204;11.556;2023-02-21T13:12:16;2.33;;;0.45;;
57605;SDS011;43430;48.204;11.556;2023-02-21T13:14:47;1.73;;;0.40;;
57605;SDS011;43430;48.204;11.556;2023-02-21T13:17:17;1.95;;;0.40;;
57605;SDS011;43430;48.204;11.556;2023-02-21T13:25:50;2.85;;;0.70;;
57605;SDS011;43430;48.204;11.556;2023-02-21T13:28:37;2.08;;;0.50;;
57605;SDS011;43430;48.204;11.556;2023-02-21T13:31:05;2.22;;;0.45;;
57605;SDS011;43430;48.204;11.556;2023-02-21T13:33:42;2.33;;;0.50;;
57605;SDS011;43430;48.204;11.556;2023-02-21T13:36:20;1.77;;;0.65;;
57605;SDS011;43430;48.204;11.556;2023-02-21T13:38:59;1.52;;;0.32;;
57605;SDS011;43430;48.204;11.556;2023-02-21T13:41:26;2.63;;;0.50;;
57605;SDS011;43430;48.204;11.556;2023-02-21T13:43:54;2.03;;;0.52;;
57605;SDS011;43430;48.204;11.556;2023-02-21T13:57:44;3.33;;;0.50;;
57605;SDS011;43430;48.204;11.556;2023-02-21T14:02:57;1.23;;;0.35;;
57605;SDS011;43430;48.204;11.556;2023-02-21T14:08:20;1.40;;;0.40;;
57605;SDS011;43430;48.204;11.556;2023-02-21T14:10:51;3.45;;;0.50;;
57605;SDS011;43430;48.204;11.556;2023-02-21T14:13:32;2.28;;;0.60;;
57605;SDS011;43430;48.204;11.556;2023-02-21T14:18:40;6.15;;;0.40;;
57605;SDS011;43430;48.204;11.556;2023-02-21T14:21:13;3.20;;;0.60;;
57605;SDS011;43430;48.204;11.556;2023-02-21T14:23:49;2.75;;;0.38;;
57605;SDS011;43430;48.204;11.556;2023-02-21T14:34:14;1.65;;;0.40;;
57605;SDS011;43430;48.204;11.556;2023-02-21T14:36:47;1.38;;;0.40;;
57605;SDS011;43430;48.204;11.556;2023-02-21T14:39:14;0.73;;;0.30;;
57605;SDS011;43430;48.204;11.556;2023-02-21T14:45:10;1.63;;;0.40;;
57605;SDS011;43430;48.204;11.556;2023-02-21T14:50:35;4.32;;;0.45;;
57605;SDS011;43430;48.204;11.556;2023-02-21T14:56:08;1.40;;;0.50;;
57605;SDS011;43430;48.204;11.556;2023-02-21T15:03:44;1.63;;;0.30;;
57605;SDS011;43430;48.204;11.556;2023-02-21T15:06:19;1.10;;;0.30;;
57605;SDS011;43430;48.204;11.556;2023-02-21T15:08:47;1.88;;;0.32;;
57605;SDS011;43430;48.204;11.556;2023-02-21T15:11:18;1.13;;;0.30;;
57605;SDS011;43430;48.204;11.556;2023-02-21T15:16:46;2.33;;;0.35;;
57605;SDS011;43430;48.204;11.556;2023-02-21T15:19:21;3.08;;;0.20;;
57605;SDS011;43430;48.204;11.556;2023-02-21T15:27:36;1.65;;;0.25;;
57605;SDS011;43430;48.204;11.556;2023-02-21T15:32:54;0.93;;;0.30;;
57605;SDS011;43430;48.204;11.556;2023-02-21T15:35:22;5.13;;;1.20;;
57605;SDS011;43430;48.204;11.556;2023-02-21T15:37:53;2.25;;;0.32;;
57605;SDS011;43430;48.204;11.556;2023-02-21T15:40:22;2.75;;;0.20;;
57605;SDS011;43430;48.204;11.556;2023-02-21T15:42:50;1.33;;;0.30;;
57605;SDS011;43430;48.204;11.556;2023-02-21T15:45:18;1.05;;;0.40;;
57605;SDS011;43430;48.204;11.556;2023-02-21T15:47:58;1.20;;;0.20;;
57605;SDS011;43430;48.204;11.556;2023-02-21T15:50:29;0.85;;;0.28;;
57605;SDS011;43430;48.204;11.556;2023-02-21T15:53:13;0.88;;;0.20;;
57605;SDS011;43430;48.204;11.556;2023-02-21T15:55:44;4.80;;;0.35;;
57605;SDS011;43430;48.204;11.556;2023-02-21T15:58:12;0.80;;;0.20;;
57605;SDS011;43430;48.204;11.556;2023-02-21T16:00:41;0.95;;;0.30;;
57605;SDS011;43430;48.204;11.556;2023-02-21T16:06:17;0.68;;;0.30;;
57605;SDS011;43430;48.204;11.556;2023-02-21T16:08:51;2.03;;;0.40;;
57605;SDS011;43430;48.204;11.556;2023-02-21T16:11:17;3.13;;;0.20;;
57605;SDS011;43430;48.204;11.556;2023-02-21T16:13:43;1.27;;;0.30;;
57605;SDS011;43430;48.204;11.556;2023-02-21T16:16:09;1.00;;;0.20;;
57605;SDS011;43430;48.204;11.556;2023-02-21T16:18:35;3.30;;;0.40;;
57605;SDS011;43430;48.204;11.556;2023-02-21T16:21:01;1.70;;;0.40;;
57605;SDS011;43430;48.204;11.556;2023-02-21T16:23:39;2.92;;;0.50;;
57605;SDS011;43430;48.204;11.556;2023-02-21T16:28:39;1.33;;;0.60;;
57605;SDS011;43430;48.204;11.556;2023-02-21T16:31:06;2.95;;;0.43;;
57605;SDS011;43430;48.204;11.556;2023-02-21T16:33:33;3.67;;;0.43;;
57605;SDS011;43430;48.204;11.556;2023-02-21T16:36:03;2.58;;;0.65;;
57605;SDS011;43430;48.204;11.556;2023-02-21T16:38:31;3.03;;;0.85;;
57605;SDS011;43430;48.204;11.556;2023-02-21T16:40:56;2.17;;;0.80;;
57605;SDS011;43430;48.204;11.556;2023-02-21T16:43:22;6.68;;;4.13;;
57605;SDS011;43430;48.204;11.556;2023-02-21T16:45:51;4.85;;;2.08;;
57605;SDS011;43430;48.204;11.556;2023-02-21T16:48:19;4.70;;;1.10;;
57605;SDS011;43430;48.204;11.556;2023-02-21T16:50:48;5.15;;;1.27;;
57605;SDS011;43430;48.204;11.556;2023-02-21T16:53:15;3.88;;;1.30;;
57605;SDS011;43430;48.204;11.556;2023-02-21T16:55:42;2.92;;;1.20;;
57605;SDS011;43430;48.204;11.556;2023-02-21T16:58:14;5.95;;;1.05;;
57605;SDS011;43430;48.204;11.556;2023-02-21T17:00:50;4.47;;;1.65;;
57605;SDS011;43430;48.204;11.556;2023-02-21T17:03:17;4.93;;;1.23;;
57605;SDS011;43430;48.204;11.556;2023-02-21T17:05:43;9.05;;;1.80;;
57605;SDS011;43430;48.204;11.556;2023-02-21T17:08:09;4.43;;;1.45;;
57605;SDS011;43430;48.204;11.556;2023-02-21T17:10:35;4.50;;;1.40;;
57605;SDS011;43430;48.204;11.556;2023-02-21T17:13:00;8.93;;;1.45;;
57605;SDS011;43430;48.204;11.556;2023-02-21T17:15:27;3.92;;;1.10;;
57605;SDS011;43430;48.204;11.556;2023-02-21T17:17:53;11.65;;;1.50;;
57605;SDS011;43430;48.204;11.556;2023-02-21T17:20:18;19.40;;;9.45;;
57605;SDS011;43430;48.204;11.556;2023-02-21T17:22:44;24.80;;;9.70;;
57605;SDS011;43430;48.204;11.556;2023-02-21T17:25:10;10.85;;;5.13;;
57605;SDS011;43430;48.204;11.556;2023-02-21T17:27:35;19.85;;;9.82;;
57605;SDS011;43430;48.204;11.556;2023-02-21T17:30:01;9.85;;;4.85;;
57605;SDS011;43430;48.204;11.556;2023-02-21T17:32:27;10.80;;;4.85;;
57605;SDS011;43430;48.204;11.556;2023-02-21T17:34:54;11.93;;;5.35;;
57605;SDS011;43430;48.204;11.556;2023-02-21T17:37:20;11.35;;;5.57;;
57605;SDS011;43430;48.204;11.556;2023-02-21T17:39:45;13.85;;;5.72;;
57605;SDS011;43430;48.204;11.556;2023-02-21T17:42:10;9.85;;;4.68;;
57605;SDS011;43430;48.204;11.556;2023-02-21T17:44:36;6.45;;;3.58;;
57605;SDS011;43430;48.204;11.556;2023-02-21T17:47:02;9.00;;;3.47;;
57605;SDS011;43430;48.204;11.556;2023-02-21T17:49:31;8.18;;;3.97;;
57605;SDS011;43430;48.204;11.556;2023-02-21T17:51:57;8.45;;;3.88;;